KSPI

Abraham Lincoln Capital Airport

Springfield, Illinois, USA
METAR KSPI 100552Z AUTO 00000KT 4SM BR CLR M08/M09 A3034 RMK AO2 SLP282 I1001 I6001 T10781094 11033 21083 400001106 51005 TSNO
Observed Flight Rules
Dec-10 @ 05:52 UTC (37 minutes ago) Marginal Visual Flight Rules
Visibility Clouds Conditions
4 miles
  • Clear skies
  • Mist
Temperatures Readings
Current -8°C / 18°F
Dewpoint -9°C / 16°F
Humidity 93%
Altimeter 30.34" Hg
Pressure 1028.2 hPa
Elevation 181
METAR KSPI 100552Z AUTO 00000KT 4SM BR CLR M08/M09 A3034 RMK AO2 SLP282 I1001 I6001 T10781094 11033 21083 400001106 51005 TSNO
Observed Flight Rules
Dec-10 @ 05:52 UTC
(37 minutes ago)
MVFR
Clouds
  • Clear skies
Conditions
  • Mist
Temperature Dewpoint
-8°C / 18°F -9°C / 16°F
Humidity Altimeter Pressure
93% 30.34" Hg 1028.2 hPa